Gilead, Illinois
Current Conditions -  °F | °C
As of 10:54 PM on Tuesday 25 Nov 2014 (Local Time) from KSET Reporting Station
Clear Clear  
Wind Chill: 28°   Ceiling: Unl
Heat Index: 28°   Visibility: 10mi
Dew Point: 26°   Wind: 3mph
Humidity: 92%   Direction: 70°ENE
Pressure: 30.17"   Gusts: NA
Location:  39.0922°N, 90.6653°W
Report Text: KSET 260454Z AUTO 07003KT 10SM CLR M02/M03 A3017 RMK AO2 SLP219 T10221033
Loading
Personal Weather Stations






























Interactive Weather Map New forecast layout! Learn more

10-Day Weather Forecast

Advertisements
Track Severe Weather on mobile